createdAt,value
2022-10-13T00:00:12.027Z,42.40
2022-10-13T00:05:32.178Z,42.30
2022-10-13T00:10:52.332Z,42.30
2022-10-13T00:16:12.501Z,42.30
2022-10-13T00:21:32.616Z,42.30
2022-10-13T00:26:53.002Z,42.30
2022-10-13T00:32:13.048Z,42.30
2022-10-13T00:37:33.257Z,42.30
2022-10-13T00:42:53.450Z,42.30
2022-10-13T00:48:13.648Z,42.30
2022-10-13T00:53:33.838Z,42.30
2022-10-13T00:58:54.113Z,42.30
2022-10-13T01:04:14.264Z,42.30
2022-10-13T01:09:34.443Z,42.40
2022-10-13T01:14:54.575Z,42.40
2022-10-13T01:20:14.654Z,42.30
2022-10-13T01:25:34.710Z,42.40
2022-10-13T01:30:55.004Z,42.20
2022-10-13T01:36:15.006Z,42.20
2022-10-13T01:41:35.174Z,42.20
2022-10-13T01:46:55.515Z,42.20
2022-10-13T01:52:15.918Z,42.20
2022-10-13T01:57:36.302Z,42.20
2022-10-13T02:02:56.440Z,42.30
2022-10-13T02:08:16.540Z,42.30
2022-10-13T02:13:36.753Z,42.30
2022-10-13T02:18:56.904Z,42.30
2022-10-13T02:24:17.167Z,42.20
2022-10-13T02:29:37.409Z,42.30
2022-10-13T02:34:57.641Z,42.30
2022-10-13T02:40:17.627Z,42.20
2022-10-13T02:45:37.680Z,42.30
2022-10-13T02:50:57.831Z,42.30
2022-10-13T02:56:18.085Z,42.30
2022-10-13T03:01:38.293Z,42.30
2022-10-13T03:06:58.395Z,42.30
2022-10-13T03:12:18.822Z,42.30
2022-10-13T03:17:39.192Z,42.30
2022-10-13T03:22:59.224Z,42.30
2022-10-13T03:28:19.279Z,42.30
2022-10-13T03:33:39.447Z,42.30
2022-10-13T03:38:59.587Z,42.30
2022-10-13T03:44:19.875Z,42.30
2022-10-13T03:49:40.028Z,42.30
2022-10-13T03:55:00.222Z,42.30
2022-10-13T04:00:20.224Z,42.30
2022-10-13T04:05:40.311Z,42.30
2022-10-13T04:11:00.405Z,42.30
2022-10-13T04:16:20.542Z,42.30
2022-10-13T04:21:40.471Z,42.30
2022-10-13T04:27:00.490Z,42.20
2022-10-13T04:32:20.704Z,42.20
2022-10-13T04:37:44.967Z,42.20
2022-10-13T04:43:05.572Z,42.20
2022-10-13T04:48:25.615Z,42.20
2022-10-13T04:53:45.863Z,42.20
2022-10-13T04:59:06.093Z,42.20
2022-10-13T05:04:26.216Z,42.20
2022-10-13T05:09:46.352Z,42.20
2022-10-13T05:15:06.532Z,42.20
2022-10-13T05:20:26.588Z,42.20
2022-10-13T05:25:46.823Z,42.20
2022-10-13T05:31:06.956Z,42.20
2022-10-13T05:36:27.232Z,42.20
2022-10-13T05:41:47.415Z,42.20
2022-10-13T05:47:07.872Z,42.20
2022-10-13T05:52:27.601Z,42.20
2022-10-13T05:57:47.804Z,42.20
2022-10-13T06:03:07.930Z,42.20
2022-10-13T06:08:28.106Z,42.20
2022-10-13T06:13:48.315Z,42.20
2022-10-13T06:19:08.495Z,42.20
2022-10-13T06:24:28.848Z,42.20
2022-10-13T06:29:48.968Z,42.20
2022-10-13T06:35:09.068Z,42.20
2022-10-13T06:40:29.037Z,42.20
2022-10-13T06:45:49.136Z,42.20
2022-10-13T06:51:09.113Z,42.20
2022-10-13T06:56:29.270Z,42.20
2022-10-13T07:01:49.387Z,42.20
2022-10-13T07:07:09.605Z,42.20
2022-10-13T07:12:29.762Z,42.20
2022-10-13T07:17:50.022Z,42.20
2022-10-13T07:23:10.127Z,42.20
2022-10-13T07:28:30.198Z,42.20
2022-10-13T07:33:50.274Z,42.20
2022-10-13T07:39:10.536Z,42.20
2022-10-13T07:44:30.641Z,42.20
2022-10-13T07:49:50.974Z,42.20
2022-10-13T07:55:12.447Z,42.20
2022-10-13T08:00:32.579Z,42.20
2022-10-13T08:05:52.669Z,42.20
2022-10-13T08:11:16.194Z,42.20
2022-10-13T08:16:37.218Z,42.20
2022-10-13T08:21:59.166Z,42.20
2022-10-13T08:27:20.493Z,42.20
2022-10-13T08:32:40.640Z,42.20
2022-10-13T08:38:00.703Z,42.20
2022-10-13T08:43:20.727Z,42.20
2022-10-13T08:48:40.861Z,42.20
2022-10-13T08:54:00.967Z,42.20
2022-10-13T08:59:21.150Z,42.20
2022-10-13T09:04:41.317Z,42.20
2022-10-13T09:10:01.620Z,42.20
2022-10-13T09:15:21.571Z,42.20
2022-10-13T09:20:41.691Z,42.20
2022-10-13T09:26:01.833Z,42.20
2022-10-13T09:31:21.956Z,42.20
2022-10-13T09:36:41.931Z,42.20
2022-10-13T09:42:02.087Z,42.30
2022-10-13T09:47:22.092Z,42.30
2022-10-13T09:52:42.272Z,42.30
2022-10-13T09:58:02.395Z,42.30
2022-10-13T10:03:22.571Z,42.30
2022-10-13T10:09:02.008Z,42.30
2022-10-13T10:14:22.608Z,42.30
2022-10-13T10:19:42.796Z,42.30
2022-10-13T10:25:02.980Z,42.30
2022-10-13T10:30:22.980Z,42.30
2022-10-13T10:35:43.136Z,42.30
2022-10-13T10:41:03.210Z,42.30
2022-10-13T10:46:23.403Z,42.20
2022-10-13T10:51:43.455Z,42.20
2022-10-13T10:57:03.676Z,42.20
2022-10-13T11:02:23.821Z,42.20
2022-10-13T11:07:44.065Z,42.20
2022-10-13T11:13:04.225Z,42.30
2022-10-13T11:18:24.476Z,42.20
2022-10-13T11:23:44.684Z,42.20
2022-10-13T11:29:04.718Z,42.20
2022-10-13T11:34:24.715Z,42.20
2022-10-13T11:39:44.956Z,42.30
2022-10-13T11:45:05.043Z,42.30
2022-10-13T11:50:25.208Z,42.30
2022-10-13T11:55:45.321Z,42.20
2022-10-13T12:01:05.480Z,42.20
2022-10-13T12:06:25.589Z,42.20
2022-10-13T12:11:45.873Z,42.30
2022-10-13T12:17:05.944Z,42.20
2022-10-13T12:22:26.062Z,42.20
2022-10-13T12:27:46.178Z,42.20
2022-10-13T12:33:06.283Z,42.30
2022-10-13T12:38:26.460Z,42.20
2022-10-13T12:43:46.565Z,42.40
2022-10-13T12:49:06.730Z,43.00
2022-10-13T12:54:26.981Z,43.60
2022-10-13T12:59:47.201Z,43.70
2022-10-13T13:05:07.388Z,43.60
2022-10-13T13:10:27.706Z,43.50
2022-10-13T13:15:48.008Z,43.50
2022-10-13T13:21:08.057Z,43.40
2022-10-13T13:26:28.206Z,43.30
2022-10-13T13:31:48.240Z,43.30
2022-10-13T13:37:08.731Z,43.20
2022-10-13T13:42:28.943Z,43.10
2022-10-13T13:47:48.986Z,43.20
2022-10-13T13:53:09.098Z,43.00
2022-10-13T13:58:29.250Z,43.00
2022-10-13T14:03:49.432Z,43.10
2022-10-13T14:09:09.448Z,43.00
2022-10-13T14:14:29.727Z,42.90
2022-10-13T14:19:49.845Z,42.90
2022-10-13T14:25:09.995Z,42.90
2022-10-13T14:30:30.081Z,42.80
2022-10-13T14:35:50.075Z,42.90
2022-10-13T14:41:10.194Z,42.90
2022-10-13T14:46:30.391Z,42.80
2022-10-13T14:51:50.441Z,42.70
2022-10-13T14:57:10.599Z,42.70
2022-10-13T15:02:31.157Z,42.80
2022-10-13T15:07:51.307Z,42.60
2022-10-13T15:13:11.336Z,42.40
2022-10-13T15:18:31.547Z,42.40
2022-10-13T15:23:51.610Z,42.40
2022-10-13T15:29:11.791Z,42.30
2022-10-13T15:34:31.805Z,42.30
2022-10-13T15:39:56.903Z,42.40
2022-10-13T15:45:17.673Z,42.40
2022-10-13T15:50:37.739Z,42.50
2022-10-13T15:55:57.884Z,42.50
2022-10-13T16:01:18.027Z,42.60
2022-10-13T16:06:38.161Z,42.50
2022-10-13T16:11:58.324Z,42.60
2022-10-13T16:17:18.456Z,42.60
2022-10-13T16:22:38.695Z,42.60
2022-10-13T16:27:58.844Z,42.60
2022-10-13T16:33:18.898Z,42.70
2022-10-13T16:38:39.061Z,42.60
2022-10-13T16:43:59.261Z,42.70
2022-10-13T16:49:19.336Z,42.70
2022-10-13T16:54:39.623Z,42.70
2022-10-13T16:59:59.657Z,42.80
2022-10-13T17:05:19.856Z,42.80
2022-10-13T17:10:39.884Z,42.80
2022-10-13T17:16:00.076Z,42.80
2022-10-13T17:21:20.127Z,42.80
2022-10-13T17:26:40.377Z,42.70
2022-10-13T17:32:00.492Z,42.80
2022-10-13T17:37:20.850Z,42.80
2022-10-13T17:42:41.233Z,42.80
2022-10-13T17:48:01.431Z,42.80
2022-10-13T17:53:21.623Z,42.80
2022-10-13T17:58:41.823Z,42.80
2022-10-13T18:04:01.858Z,42.80
2022-10-13T18:09:22.088Z,42.80
2022-10-13T18:14:42.043Z,42.80
2022-10-13T18:20:02.211Z,43.00
2022-10-13T18:25:22.341Z,42.90
2022-10-13T18:30:42.636Z,43.00
2022-10-13T18:36:02.737Z,43.00
2022-10-13T18:41:22.937Z,43.00
2022-10-13T18:46:43.131Z,42.90
2022-10-13T18:52:03.202Z,42.90
2022-10-13T18:57:23.444Z,43.00
2022-10-13T19:02:43.287Z,42.90
2022-10-13T19:08:03.343Z,42.90
2022-10-13T19:13:23.409Z,42.90
2022-10-13T19:18:43.460Z,42.90
2022-10-13T19:24:03.653Z,42.90
2022-10-13T19:29:23.854Z,42.90
2022-10-13T19:34:44.039Z,42.90
2022-10-13T19:40:04.267Z,42.90
2022-10-13T19:45:24.447Z,42.90
2022-10-13T19:50:44.516Z,42.90
2022-10-13T19:56:04.709Z,42.90
2022-10-13T20:01:24.761Z,42.90
2022-10-13T20:06:45.048Z,42.90
2022-10-13T20:12:05.092Z,42.90
2022-10-13T20:17:25.234Z,42.90
2022-10-13T20:22:45.268Z,42.90
2022-10-13T20:28:05.474Z,42.90
2022-10-13T20:33:25.598Z,42.90
2022-10-13T20:38:45.891Z,42.90
2022-10-13T20:44:05.975Z,42.90
2022-10-13T20:49:26.123Z,42.90
2022-10-13T20:54:46.331Z,42.90
2022-10-13T21:00:06.390Z,43.00
2022-10-13T21:05:26.501Z,42.90
2022-10-13T21:10:46.597Z,42.90
2022-10-13T21:16:06.725Z,42.90
2022-10-13T21:21:26.933Z,42.90
2022-10-13T21:26:47.030Z,42.90
2022-10-13T21:32:07.246Z,42.90
2022-10-13T21:37:27.389Z,42.90
2022-10-13T21:42:47.698Z,42.90
2022-10-13T21:48:07.861Z,42.90
2022-10-13T21:53:28.045Z,42.90
2022-10-13T21:58:48.050Z,42.90
2022-10-13T22:04:08.509Z,42.90
2022-10-13T22:09:28.710Z,42.90
2022-10-13T22:14:48.767Z,42.90
2022-10-13T22:20:08.932Z,43.00
2022-10-13T22:25:28.856Z,42.90
2022-10-13T22:30:48.983Z,43.00
2022-10-13T22:36:09.029Z,43.00
2022-10-13T22:41:29.179Z,42.90
2022-10-13T22:46:49.282Z,43.00
2022-10-13T22:52:09.463Z,42.90
2022-10-13T22:57:29.516Z,43.00
2022-10-13T23:02:49.752Z,42.90
2022-10-13T23:08:09.947Z,43.00
2022-10-13T23:13:30.234Z,42.90
2022-10-13T23:18:50.265Z,42.90
2022-10-13T23:24:10.476Z,42.90
2022-10-13T23:29:30.665Z,42.90
2022-10-13T23:34:50.706Z,43.00
2022-10-13T23:40:10.850Z,43.00
2022-10-13T23:45:30.947Z,42.90
2022-10-13T23:50:51.036Z,43.00
2022-10-13T23:56:11.316Z,42.90
